createdAt,value
2023-01-31T00:00:49.919Z,88.60
2023-01-31T00:03:18.145Z,87.40
2023-01-31T00:05:46.358Z,87.10
2023-01-31T00:08:15.382Z,87.30
2023-01-31T00:10:43.510Z,87.00
2023-01-31T00:13:11.693Z,88.00
2023-01-31T00:15:40.020Z,88.80
2023-01-31T00:18:09.559Z,88.30
2023-01-31T00:20:38.350Z,87.90
2023-01-31T00:23:06.796Z,88.10
2023-01-31T00:25:34.970Z,88.20
2023-01-31T00:28:03.131Z,88.70
2023-01-31T00:30:31.500Z,88.50
2023-01-31T00:32:59.755Z,87.90
2023-01-31T00:35:29.360Z,88.00
2023-01-31T00:37:57.586Z,87.60
2023-01-31T00:40:29.060Z,87.20
2023-01-31T00:42:57.411Z,87.40
2023-01-31T00:45:25.600Z,87.30
2023-01-31T00:47:53.924Z,87.20
2023-01-31T00:50:22.335Z,87.50
2023-01-31T00:52:52.323Z,87.30
2023-01-31T00:55:20.837Z,86.60
2023-01-31T00:57:49.320Z,86.20
2023-01-31T01:00:18.940Z,87.00
2023-01-31T01:02:48.240Z,87.20
2023-01-31T01:05:16.619Z,87.30
2023-01-31T01:07:44.920Z,87.30
2023-01-31T01:10:15.353Z,87.30
2023-01-31T01:12:43.652Z,87.40
2023-01-31T01:15:15.715Z,87.30
2023-01-31T01:17:44.073Z,86.40
2023-01-31T01:20:13.349Z,85.70
2023-01-31T01:22:42.696Z,85.30
2023-01-31T01:25:11.668Z,85.20
2023-01-31T01:27:41.240Z,84.70
2023-01-31T01:30:11.128Z,84.20
2023-01-31T01:32:39.503Z,84.50
2023-01-31T01:35:10.047Z,84.90
2023-01-31T01:37:38.353Z,85.80
2023-01-31T01:40:09.105Z,85.50
2023-01-31T01:42:38.517Z,85.00
2023-01-31T01:45:16.429Z,84.80
2023-01-31T01:47:50.107Z,84.70
2023-01-31T01:50:22.179Z,84.70
2023-01-31T01:52:54.652Z,84.30
2023-01-31T01:55:28.575Z,84.20
2023-01-31T01:58:00.090Z,83.10
2023-01-31T02:00:32.308Z,83.20
2023-01-31T02:03:02.952Z,82.80
2023-01-31T02:05:35.938Z,83.80
2023-01-31T02:08:04.941Z,84.20
2023-01-31T02:10:36.580Z,84.20
2023-01-31T02:13:06.816Z,84.00
2023-01-31T02:15:36.867Z,83.60
2023-01-31T02:18:06.325Z,83.60
2023-01-31T02:21:05.574Z,83.70
2023-01-31T02:24:03.743Z,83.00
2023-01-31T02:27:21.459Z,82.60
2023-01-31T02:30:20.302Z,82.30
2023-01-31T02:33:03.594Z,82.60
2023-01-31T02:35:44.605Z,82.30
2023-01-31T02:38:26.579Z,82.30
2023-01-31T02:41:04.560Z,82.30
2023-01-31T02:43:58.068Z,82.20
2023-01-31T02:46:31.987Z,83.00
2023-01-31T02:49:08.480Z,82.70
2023-01-31T02:51:41.277Z,83.20
2023-01-31T02:54:14.690Z,84.00
2023-01-31T02:56:44.992Z,84.50
2023-01-31T02:59:20.148Z,84.50
2023-01-31T03:01:52.170Z,84.30
2023-01-31T03:04:21.863Z,84.40
2023-01-31T03:07:00.758Z,84.50
2023-01-31T03:09:40.860Z,84.10
2023-01-31T03:12:31.559Z,84.30
2023-01-31T03:15:19.824Z,84.30
2023-01-31T03:17:58.606Z,84.50
2023-01-31T03:20:46.095Z,85.10
2023-01-31T03:23:19.129Z,85.90
2023-01-31T03:25:50.253Z,85.90
2023-01-31T03:28:26.715Z,86.60
2023-01-31T03:31:02.768Z,86.70
2023-01-31T03:33:36.103Z,86.70
2023-01-31T03:36:19.019Z,85.90
2023-01-31T03:38:59.809Z,85.40
2023-01-31T03:41:33.502Z,85.30
2023-01-31T03:44:08.901Z,85.90
2023-01-31T03:46:41.181Z,86.00
2023-01-31T03:49:14.509Z,87.50
2023-01-31T03:51:47.898Z,87.50
2023-01-31T03:54:20.045Z,88.00
2023-01-31T03:56:56.245Z,88.00
2023-01-31T03:59:28.584Z,87.50
2023-01-31T04:02:00.676Z,87.40
2023-01-31T04:04:37.239Z,87.30
2023-01-31T04:07:07.120Z,87.20
2023-01-31T04:09:39.443Z,86.70
2023-01-31T04:12:07.961Z,87.40
2023-01-31T04:14:36.968Z,87.90
2023-01-31T04:17:05.700Z,87.50
2023-01-31T04:19:33.894Z,87.60
2023-01-31T04:22:02.326Z,87.80
2023-01-31T04:24:32.059Z,88.70
2023-01-31T04:27:00.501Z,87.90
2023-01-31T04:29:28.662Z,88.30
2023-01-31T04:31:56.847Z,88.10
2023-01-31T04:34:25.145Z,88.30
2023-01-31T04:36:53.544Z,88.80
2023-01-31T04:39:24.858Z,88.70
2023-01-31T04:41:54.926Z,88.90
2023-01-31T04:44:24.356Z,89.00
2023-01-31T04:46:54.024Z,89.00
2023-01-31T04:49:22.618Z,89.80
2023-01-31T04:51:50.997Z,90.10
2023-01-31T04:54:19.282Z,90.10
2023-01-31T04:56:47.507Z,90.00
2023-01-31T04:59:17.998Z,89.70
2023-01-31T05:01:46.073Z,89.20
2023-01-31T05:04:14.806Z,89.10
2023-01-31T05:06:43.056Z,89.10
2023-01-31T05:09:12.803Z,89.60
2023-01-31T05:11:41.377Z,89.20
2023-01-31T05:14:09.703Z,89.40
2023-01-31T05:16:39.276Z,90.00
2023-01-31T05:19:07.804Z,90.00
2023-01-31T05:21:54.914Z,89.20
2023-01-31T05:24:23.853Z,89.10
2023-01-31T05:26:56.649Z,89.10
2023-01-31T05:29:25.806Z,89.40
2023-01-31T05:31:56.640Z,89.20
2023-01-31T05:34:26.530Z,89.90
2023-01-31T05:36:55.283Z,90.10
2023-01-31T05:39:23.866Z,89.90
2023-01-31T05:41:52.801Z,90.10
2023-01-31T05:44:21.132Z,90.20
2023-01-31T05:46:49.455Z,89.80
2023-01-31T05:49:19.052Z,90.10
2023-01-31T05:51:47.445Z,90.80
2023-01-31T05:54:15.827Z,90.60
2023-01-31T05:56:43.991Z,90.50
2023-01-31T05:59:12.364Z,90.40
2023-01-31T06:01:41.370Z,90.60
2023-01-31T06:04:10.695Z,90.60
2023-01-31T06:06:40.423Z,90.90
2023-01-31T06:09:12.178Z,91.30
2023-01-31T06:11:40.620Z,91.00
2023-01-31T06:14:11.446Z,91.20
2023-01-31T06:16:39.750Z,91.30
2023-01-31T06:19:08.522Z,91.40
2023-01-31T06:21:36.741Z,91.70
2023-01-31T06:24:08.488Z,92.00
2023-01-31T06:26:36.906Z,92.20
2023-01-31T06:29:05.523Z,92.40
2023-01-31T06:31:36.009Z,92.30
2023-01-31T06:34:04.540Z,92.30
2023-01-31T06:36:34.179Z,92.20
2023-01-31T06:39:09.436Z,92.30
2023-01-31T06:41:39.034Z,92.40
2023-01-31T06:44:08.433Z,92.60
2023-01-31T06:46:36.812Z,92.70
2023-01-31T06:49:05.352Z,92.60
2023-01-31T06:51:33.522Z,92.50
2023-01-31T06:54:01.821Z,92.50
2023-01-31T06:56:30.433Z,92.30
2023-01-31T06:59:00.052Z,92.10
2023-01-31T07:01:28.598Z,91.90
2023-01-31T07:03:57.064Z,91.80
2023-01-31T07:06:25.492Z,91.80
2023-01-31T07:08:53.836Z,91.70
2023-01-31T07:11:22.040Z,91.80
2023-01-31T07:13:50.427Z,91.50
2023-01-31T07:16:20.114Z,91.60
2023-01-31T07:18:48.342Z,91.40
2023-01-31T07:21:16.718Z,91.50
2023-01-31T07:23:45.549Z,91.20
2023-01-31T07:26:13.724Z,91.20
2023-01-31T07:28:42.075Z,91.10
2023-01-31T07:31:12.893Z,91.10
2023-01-31T07:33:42.741Z,91.20
2023-01-31T07:36:14.198Z,91.30
2023-01-31T07:38:43.686Z,91.20
2023-01-31T07:41:12.731Z,91.10
2023-01-31T07:43:43.908Z,91.30
2023-01-31T07:46:12.524Z,91.30
2023-01-31T07:48:42.617Z,90.90
2023-01-31T07:51:11.207Z,91.10
2023-01-31T07:53:42.265Z,90.80
2023-01-31T07:56:13.024Z,90.40
2023-01-31T07:58:42.685Z,90.30
2023-01-31T08:01:41.476Z,89.90
2023-01-31T08:04:21.215Z,87.90
2023-01-31T08:06:53.684Z,88.00
2023-01-31T08:09:21.985Z,88.40
2023-01-31T08:11:51.863Z,89.10
2023-01-31T08:14:23.783Z,88.40
2023-01-31T08:16:52.715Z,87.60
2023-01-31T08:19:22.890Z,87.80
2023-01-31T08:21:51.349Z,87.50
2023-01-31T08:24:19.759Z,86.80
2023-01-31T08:26:48.599Z,86.90
2023-01-31T08:29:16.985Z,86.50
2023-01-31T08:31:45.461Z,86.30
2023-01-31T08:34:14.956Z,86.80
2023-01-31T08:36:45.258Z,86.00
2023-01-31T08:39:13.687Z,85.50
2023-01-31T08:41:43.770Z,86.50
2023-01-31T08:44:13.944Z,86.40
2023-01-31T08:46:45.750Z,86.40
2023-01-31T08:49:14.176Z,86.30
2023-01-31T08:51:45.545Z,86.30
2023-01-31T08:54:14.848Z,86.00
2023-01-31T08:56:43.185Z,85.70
2023-01-31T08:59:12.746Z,85.50
2023-01-31T09:01:42.408Z,85.10
2023-01-31T09:04:10.907Z,85.70
2023-01-31T09:06:39.959Z,85.40
2023-01-31T09:09:10.423Z,84.60
2023-01-31T09:11:39.624Z,85.00
2023-01-31T09:14:07.879Z,84.40
2023-01-31T09:16:36.292Z,85.00
2023-01-31T09:19:04.863Z,84.10
2023-01-31T09:21:33.618Z,85.20
2023-01-31T09:24:03.882Z,84.90
2023-01-31T09:26:34.391Z,84.80
2023-01-31T09:29:03.744Z,84.70
2023-01-31T09:31:32.479Z,84.50
2023-01-31T09:34:00.989Z,84.50
2023-01-31T09:36:30.163Z,85.10
2023-01-31T09:38:59.497Z,84.40
2023-01-31T09:41:34.963Z,83.70
2023-01-31T09:44:07.794Z,84.10
2023-01-31T09:46:39.301Z,83.70
2023-01-31T09:49:11.888Z,83.90
2023-01-31T09:51:41.117Z,83.50
2023-01-31T09:54:18.093Z,82.80
2023-01-31T09:57:01.733Z,83.20
2023-01-31T09:59:37.035Z,84.10
2023-01-31T10:02:18.131Z,83.80
2023-01-31T10:05:03.042Z,82.90
2023-01-31T10:07:36.153Z,83.50
2023-01-31T10:10:13.928Z,83.50
2023-01-31T10:12:48.552Z,83.00
2023-01-31T10:15:26.100Z,82.80
2023-01-31T10:18:00.698Z,82.40
2023-01-31T10:20:35.044Z,82.10
2023-01-31T10:23:08.835Z,80.60
2023-01-31T10:25:41.624Z,81.10
2023-01-31T10:28:16.322Z,80.80
2023-01-31T10:30:50.290Z,79.50
2023-01-31T10:33:26.076Z,78.40
2023-01-31T10:35:57.306Z,79.10
2023-01-31T10:38:31.758Z,78.50
2023-01-31T10:41:07.390Z,78.80
2023-01-31T10:43:43.137Z,77.90
2023-01-31T10:46:13.084Z,78.00
2023-01-31T10:48:45.908Z,77.50
2023-01-31T10:51:28.918Z,77.90
2023-01-31T10:54:12.926Z,77.50
2023-01-31T10:56:43.975Z,78.70
2023-01-31T10:59:26.301Z,77.30
2023-01-31T11:01:54.696Z,77.00
2023-01-31T11:04:26.940Z,77.00
2023-01-31T11:06:55.966Z,78.50
2023-01-31T11:09:27.996Z,78.90
2023-01-31T11:11:58.329Z,76.80
2023-01-31T11:14:30.233Z,76.90
2023-01-31T11:17:02.004Z,76.20
2023-01-31T11:19:36.948Z,76.90
2023-01-31T11:22:08.313Z,78.00
2023-01-31T11:24:41.272Z,77.00
2023-01-31T11:27:14.055Z,76.70
2023-01-31T11:29:49.762Z,76.20
2023-01-31T11:32:21.543Z,75.30
2023-01-31T11:34:57.787Z,75.60
2023-01-31T11:37:26.256Z,74.40
2023-01-31T11:39:59.431Z,73.30
2023-01-31T11:42:28.836Z,73.60
2023-01-31T11:45:00.833Z,74.00
2023-01-31T11:47:34.695Z,74.00
2023-01-31T11:50:03.983Z,73.90
2023-01-31T11:52:34.961Z,74.00
2023-01-31T11:55:07.276Z,74.00
2023-01-31T11:57:38.365Z,74.10
2023-01-31T12:00:23.732Z,73.50
2023-01-31T12:03:00.144Z,72.40
2023-01-31T12:05:37.060Z,72.90
2023-01-31T12:08:06.428Z,72.30
2023-01-31T12:10:47.021Z,72.90
2023-01-31T12:13:19.271Z,73.80
2023-01-31T12:15:58.547Z,73.80
2023-01-31T12:18:40.965Z,73.80
2023-01-31T12:21:16.014Z,73.90
2023-01-31T12:23:56.789Z,73.80
2023-01-31T12:26:35.825Z,74.00
2023-01-31T12:29:19.322Z,73.90
2023-01-31T12:32:04.877Z,74.00
2023-01-31T12:35:00.488Z,73.80
2023-01-31T12:37:40.011Z,73.90
2023-01-31T12:40:31.764Z,73.90
2023-01-31T12:43:03.563Z,73.90
2023-01-31T12:45:45.604Z,74.90
2023-01-31T12:48:35.773Z,74.10
2023-01-31T12:51:16.314Z,74.30
2023-01-31T12:53:56.822Z,74.50
2023-01-31T12:56:45.209Z,73.80
2023-01-31T12:59:27.802Z,73.80
2023-01-31T13:02:03.708Z,73.70
2023-01-31T13:04:43.793Z,73.70
2023-01-31T13:07:17.518Z,73.80
2023-01-31T13:09:49.524Z,72.90
2023-01-31T13:12:21.378Z,72.80
2023-01-31T13:14:53.009Z,73.50
2023-01-31T13:17:27.464Z,72.50
2023-01-31T13:20:01.444Z,72.80
2023-01-31T13:22:34.899Z,73.50
2023-01-31T13:25:17.829Z,73.30
2023-01-31T13:27:53.925Z,73.50
2023-01-31T13:30:37.263Z,72.70
2023-01-31T13:33:18.321Z,72.50
2023-01-31T13:35:54.055Z,72.80
2023-01-31T13:38:23.332Z,72.30
2023-01-31T13:40:54.985Z,70.90
2023-01-31T13:43:23.337Z,71.50
2023-01-31T13:45:57.184Z,72.00
2023-01-31T13:48:30.884Z,71.90
2023-01-31T13:51:04.636Z,71.90
2023-01-31T13:53:37.421Z,72.50
2023-01-31T13:56:10.812Z,73.00
2023-01-31T13:58:40.545Z,72.90
2023-01-31T14:01:14.119Z,72.80
2023-01-31T14:04:18.704Z,72.00
2023-01-31T14:07:13.344Z,72.50
2023-01-31T14:09:45.902Z,72.50
2023-01-31T14:12:35.401Z,72.60
2023-01-31T14:15:04.371Z,72.50
2023-01-31T14:17:59.515Z,72.60
2023-01-31T14:20:29.784Z,72.20
2023-01-31T14:23:31.888Z,72.30
2023-01-31T14:26:00.379Z,73.00
2023-01-31T14:28:28.977Z,72.80
2023-01-31T14:30:57.961Z,72.90
2023-01-31T14:33:30.420Z,72.80
2023-01-31T14:36:37.494Z,72.80
2023-01-31T14:39:44.066Z,72.80
2023-01-31T14:42:36.111Z,73.00
2023-01-31T14:45:21.204Z,73.20
2023-01-31T14:48:15.695Z,73.30
2023-01-31T14:51:09.311Z,73.50
2023-01-31T14:53:55.675Z,73.50
2023-01-31T14:56:37.733Z,73.40
2023-01-31T14:59:06.501Z,73.90
2023-01-31T15:01:38.195Z,73.90
2023-01-31T15:04:07.452Z,73.30
2023-01-31T15:06:40.820Z,72.90
2023-01-31T15:09:28.965Z,73.20
2023-01-31T15:11:59.258Z,73.40
2023-01-31T15:14:36.359Z,73.20
2023-01-31T15:17:27.325Z,73.10
2023-01-31T15:20:15.042Z,72.90
2023-01-31T15:22:45.173Z,72.50
2023-01-31T15:25:24.541Z,72.30
2023-01-31T15:27:56.578Z,72.60
2023-01-31T15:30:29.039Z,73.00
2023-01-31T15:33:03.046Z,73.50
2023-01-31T15:35:34.020Z,73.70
2023-01-31T15:38:12.945Z,74.10
2023-01-31T15:40:41.261Z,74.20
2023-01-31T15:43:24.638Z,73.80
2023-01-31T15:45:53.002Z,73.30
2023-01-31T15:48:23.138Z,73.40
2023-01-31T15:50:53.497Z,74.20
2023-01-31T15:53:24.842Z,73.60
2023-01-31T15:55:58.498Z,74.10
2023-01-31T15:58:30.263Z,74.20
2023-01-31T16:01:00.755Z,73.30
2023-01-31T16:03:31.396Z,73.20
2023-01-31T16:06:03.533Z,72.90
2023-01-31T16:08:34.885Z,73.10
2023-01-31T16:11:05.608Z,73.10
2023-01-31T16:13:38.265Z,73.70
2023-01-31T16:16:10.465Z,73.80
2023-01-31T16:18:39.549Z,73.80
2023-01-31T16:21:16.526Z,73.10
2023-01-31T16:23:45.602Z,72.90
2023-01-31T16:26:16.848Z,73.00
2023-01-31T16:28:50.498Z,72.00
2023-01-31T16:31:21.804Z,71.80
2023-01-31T16:33:53.488Z,71.80
2023-01-31T16:36:26.825Z,71.70
2023-01-31T16:38:59.626Z,72.10
2023-01-31T16:41:41.808Z,72.20
2023-01-31T16:44:16.660Z,72.10
2023-01-31T16:46:47.317Z,72.10
2023-01-31T16:49:21.651Z,71.60
2023-01-31T16:51:51.010Z,72.20
2023-01-31T16:54:24.447Z,71.80
2023-01-31T16:57:22.432Z,72.10
2023-01-31T16:59:54.068Z,72.40
2023-01-31T17:02:29.171Z,72.20
2023-01-31T17:05:02.185Z,72.00
2023-01-31T17:07:32.685Z,72.70
2023-01-31T17:10:04.084Z,73.10
2023-01-31T17:12:35.149Z,72.40
2023-01-31T17:15:14.962Z,72.80
2023-01-31T17:17:43.659Z,73.00
2023-01-31T17:20:15.988Z,72.80
2023-01-31T17:22:50.468Z,72.60
2023-01-31T17:25:24.498Z,72.60
2023-01-31T17:27:53.205Z,71.80
2023-01-31T17:30:23.310Z,71.50
2023-01-31T17:32:51.944Z,71.20
2023-01-31T17:35:25.370Z,71.50
2023-01-31T17:37:53.625Z,71.70
2023-01-31T17:40:22.025Z,71.70
2023-01-31T17:42:51.990Z,71.80
2023-01-31T17:45:22.819Z,71.80
2023-01-31T17:47:51.845Z,71.90
2023-01-31T17:50:22.560Z,71.40
2023-01-31T17:52:51.666Z,71.40
2023-01-31T17:55:22.360Z,71.00
2023-01-31T17:57:50.951Z,70.90
2023-01-31T18:00:20.888Z,71.40
2023-01-31T18:02:52.642Z,71.60
2023-01-31T18:05:30.183Z,71.70
2023-01-31T18:08:05.858Z,71.40
2023-01-31T18:10:34.068Z,71.20
2023-01-31T18:13:02.406Z,70.80
2023-01-31T18:15:30.620Z,70.80
2023-01-31T18:18:00.295Z,70.40
2023-01-31T18:20:28.724Z,71.10
2023-01-31T18:22:56.991Z,71.30
2023-01-31T18:25:25.242Z,71.30
2023-01-31T18:27:53.784Z,71.50
2023-01-31T18:30:21.976Z,70.80
2023-01-31T18:32:50.157Z,70.80
2023-01-31T18:35:21.447Z,70.80
2023-01-31T18:37:50.097Z,71.10
2023-01-31T18:40:18.662Z,71.20
2023-01-31T18:42:49.996Z,71.70
2023-01-31T18:45:18.374Z,72.10
2023-01-31T18:47:46.626Z,71.90
2023-01-31T18:50:14.827Z,71.50
2023-01-31T18:52:44.464Z,71.40
2023-01-31T18:55:12.661Z,71.30
2023-01-31T18:57:40.811Z,71.50
2023-01-31T19:00:10.464Z,71.40
2023-01-31T19:02:38.675Z,71.50
2023-01-31T19:05:08.690Z,71.40
2023-01-31T19:07:36.998Z,71.70
2023-01-31T19:10:07.489Z,71.90
2023-01-31T19:12:39.171Z,72.20
2023-01-31T19:15:09.298Z,72.20
2023-01-31T19:17:38.133Z,72.80
2023-01-31T19:20:07.235Z,72.50
2023-01-31T19:22:36.075Z,72.70
2023-01-31T19:25:09.062Z,72.10
2023-01-31T19:27:37.361Z,71.50
2023-01-31T19:30:06.967Z,71.50
2023-01-31T19:32:35.337Z,71.40
2023-01-31T19:35:03.601Z,71.50
2023-01-31T19:37:31.867Z,72.00
2023-01-31T19:40:01.904Z,72.20
2023-01-31T19:42:31.890Z,72.50
2023-01-31T19:45:00.149Z,72.50
2023-01-31T19:47:28.374Z,72.50
2023-01-31T19:49:56.602Z,72.40
2023-01-31T19:52:24.847Z,72.10
2023-01-31T19:54:53.162Z,72.70
2023-01-31T19:57:21.412Z,73.20
2023-01-31T19:59:51.308Z,73.50
2023-01-31T20:02:19.641Z,73.30
2023-01-31T20:04:49.964Z,72.80
2023-01-31T20:07:18.410Z,73.30
2023-01-31T20:09:46.711Z,73.00
2023-01-31T20:12:15.850Z,73.90
2023-01-31T20:14:44.201Z,74.40
2023-01-31T20:17:13.929Z,74.10
2023-01-31T20:19:42.285Z,74.60
2023-01-31T20:22:10.547Z,74.10
2023-01-31T20:24:38.941Z,73.90
2023-01-31T20:27:07.272Z,74.00
2023-01-31T20:29:35.545Z,74.60
2023-01-31T20:32:07.513Z,74.60
2023-01-31T20:34:37.166Z,74.60
2023-01-31T20:37:05.447Z,74.70
2023-01-31T20:39:33.672Z,75.60
2023-01-31T20:42:02.683Z,75.90
2023-01-31T20:44:30.966Z,76.30
2023-01-31T20:46:59.261Z,78.10
2023-01-31T20:49:30.414Z,79.00
2023-01-31T20:52:00.345Z,80.10
2023-01-31T20:54:30.898Z,81.20
2023-01-31T20:56:59.301Z,82.40
2023-01-31T20:59:27.535Z,82.70
2023-01-31T21:01:55.729Z,82.90
2023-01-31T21:04:24.228Z,82.50
2023-01-31T21:06:52.652Z,81.90
2023-01-31T21:09:23.280Z,81.60
2023-01-31T21:11:51.588Z,81.40
2023-01-31T21:14:19.898Z,81.20
2023-01-31T21:16:48.933Z,81.90
2023-01-31T21:19:17.443Z,81.70
2023-01-31T21:21:45.673Z,81.80
2023-01-31T21:24:14.006Z,81.40
2023-01-31T21:26:44.588Z,81.40
2023-01-31T21:29:13.223Z,82.00
2023-01-31T21:31:41.640Z,82.70
2023-01-31T21:34:10.218Z,82.60
2023-01-31T21:36:38.452Z,82.60
2023-01-31T21:39:07.040Z,82.40
2023-01-31T21:41:52.636Z,82.00
2023-01-31T21:44:22.340Z,81.50
2023-01-31T21:46:50.637Z,82.00
2023-01-31T21:49:18.918Z,82.20
2023-01-31T21:51:47.316Z,82.50
2023-01-31T21:54:15.740Z,83.10
2023-01-31T21:56:44.144Z,83.10
2023-01-31T21:59:12.544Z,83.50
2023-01-31T22:01:43.667Z,83.50
2023-01-31T22:04:11.969Z,84.10
2023-01-31T22:06:42.316Z,83.70
2023-01-31T22:09:13.568Z,84.50
2023-01-31T22:11:42.325Z,85.30
2023-01-31T22:14:12.108Z,85.70
2023-01-31T22:16:41.220Z,84.70
2023-01-31T22:19:11.658Z,84.90
2023-01-31T22:21:41.398Z,85.70
2023-01-31T22:24:11.594Z,86.70
2023-01-31T22:26:42.357Z,87.70
2023-01-31T22:29:13.024Z,87.80
2023-01-31T22:31:41.730Z,89.30
2023-01-31T22:34:14.365Z,90.20
2023-01-31T22:36:44.230Z,90.50
2023-01-31T22:39:15.972Z,90.60
2023-01-31T22:41:45.148Z,90.60
2023-01-31T22:44:13.762Z,90.70
2023-01-31T22:46:42.373Z,90.50
2023-01-31T22:49:12.099Z,90.40
2023-01-31T22:51:40.413Z,90.30
2023-01-31T22:54:09.056Z,90.30
2023-01-31T22:56:38.428Z,90.20
2023-01-31T22:59:09.472Z,90.00
2023-01-31T23:01:39.107Z,90.40
2023-01-31T23:04:09.209Z,90.90
2023-01-31T23:06:39.295Z,90.90
2023-01-31T23:09:07.751Z,90.70
2023-01-31T23:11:36.078Z,90.70
2023-01-31T23:14:04.550Z,90.90
2023-01-31T23:16:50.267Z,90.70
2023-01-31T23:19:19.018Z,91.00
2023-01-31T23:21:49.299Z,90.40
2023-01-31T23:24:19.089Z,90.60
2023-01-31T23:26:47.562Z,90.80
2023-01-31T23:29:15.869Z,90.90
2023-01-31T23:31:44.521Z,90.90
2023-01-31T23:34:12.969Z,91.20
2023-01-31T23:36:41.599Z,91.20
2023-01-31T23:39:12.070Z,91.10
2023-01-31T23:41:40.367Z,90.80
2023-01-31T23:44:08.899Z,90.80
2023-01-31T23:46:37.343Z,90.80
2023-01-31T23:49:06.214Z,90.80
2023-01-31T23:51:34.507Z,90.80
2023-01-31T23:54:02.738Z,90.80
2023-01-31T23:56:32.315Z,90.80
2023-01-31T23:59:00.840Z,90.60
